Time;durP1;ratioP1;P1;durP2;ratioP2;P2;SDS_P1;SDS_P2;PMS_P1;PMS_P2;Temp;Humidity;BMP_temperature;BMP_pressure;BME280_temperature;BME280_humidity;BME280_pressure;Samples;Min_cycle;Max_cycle;Signal;HPM_P1;HPM_P2
2022/12/02 00:00:28;;;;;;;70.30;32.33;;;;;;;-0.40;nan;99238.16;5011206;28;20054;-60
2022/12/02 00:02:55;;;;;;;67.20;30.63;;;;;;;-0.34;nan;99230.81;5009594;28;20495;-59
2022/12/02 00:05:40;;;;;;;66.50;29.03;;;;;;;-0.36;nan;99221.50;5009744;28;20098;-60
2022/12/02 00:08:19;;;;;;;65.83;28.70;;;;;;;-0.33;nan;99219.06;5009916;28;20052;-60
2022/12/02 00:10:45;;;;;;;64.67;30.20;;;;;;;-0.31;nan;99220.00;5008765;28;20137;-60
2022/12/02 00:13:42;;;;;;;61.17;28.90;;;;;;;-142.25;100.00;58004.16;5008516;28;20132;-60
2022/12/02 00:16:22;;;;;;;65.03;29.37;;;;;;;-142.25;100.00;58004.16;5009605;28;20053;-61
2022/12/02 00:18:49;;;;;;;60.63;28.20;;;;;;;-142.25;100.00;58004.16;5009907;28;20091;-61
2022/12/02 00:21:15;;;;;;;67.00;30.93;;;;;;;-142.25;100.00;58004.16;5010375;28;20495;-60
2022/12/02 00:23:41;;;;;;;62.77;28.70;;;;;;;-142.25;100.00;58004.16;5008521;28;20058;-61
2022/12/02 00:26:07;;;;;;;60.37;27.97;;;;;;;-142.25;100.00;58004.16;5009517;28;20104;-60
2022/12/02 00:28:33;;;;;;;54.57;25.13;;;;;;;-142.25;100.00;58004.16;5009348;28;20671;-61
2022/12/02 00:30:59;;;;;;;62.00;28.33;;;;;;;-142.25;100.00;58004.16;5009812;28;20126;-61
2022/12/02 00:33:25;;;;;;;57.70;28.07;;;;;;;-142.25;100.00;58004.16;5008700;28;20041;-60
2022/12/02 00:35:50;;;;;;;61.37;29.10;;;;;;;-142.25;100.00;58004.16;5024162;28;20152;-60
2022/12/02 00:38:16;;;;;;;63.87;29.10;;;;;;;-142.25;100.00;58004.16;5004964;28;20155;-60
2022/12/02 00:40:41;;;;;;;63.83;29.87;;;;;;;-142.25;100.00;58004.16;5009699;28;20347;-60
2022/12/02 00:48:36;;;;;;;60.70;28.20;;;;;;;-142.25;100.00;58004.16;5007376;28;20475;-60
2022/12/02 00:51:02;;;;;;;60.07;26.60;;;;;;;-142.25;100.00;58004.16;5008196;28;20080;-61
2022/12/02 00:53:28;;;;;;;58.43;28.90;;;;;;;-142.25;100.00;58004.16;5008625;28;20396;-61
2022/12/02 00:55:54;;;;;;;58.40;26.50;;;;;;;-142.25;100.00;58004.16;5001950;28;20129;-60
2022/12/02 00:58:20;;;;;;;60.50;29.70;;;;;;;-142.25;100.00;58004.16;5006253;28;20495;-60
2022/12/02 01:00:46;;;;;;;52.80;27.30;;;;;;;-142.25;100.00;58004.16;5003830;28;20042;-59
2022/12/02 01:03:11;;;;;;;54.90;27.90;;;;;;;-142.25;100.00;58004.16;5010373;28;20045;-59
2022/12/02 01:05:38;;;;;;;53.67;26.80;;;;;;;-142.25;100.00;58004.16;5024301;28;20064;-60
2022/12/02 01:08:04;;;;;;;57.13;28.03;;;;;;;-142.25;100.00;58004.16;5002680;28;20460;-60
2022/12/02 01:10:29;;;;;;;54.80;25.80;;;;;;;-142.25;100.00;58004.16;5009909;28;20385;-59
2022/12/02 01:12:55;;;;;;;53.03;27.40;;;;;;;-142.25;100.00;58004.16;5004969;28;20269;-61
2022/12/02 01:15:21;;;;;;;55.83;27.30;;;;;;;-142.25;100.00;58004.16;5002844;28;20152;-61
2022/12/02 01:17:46;;;;;;;48.70;24.40;;;;;;;-142.25;100.00;58004.16;5023877;28;20476;-60
2022/12/02 01:20:12;;;;;;;50.70;27.50;;;;;;;-142.25;100.00;58004.16;5008805;28;20770;-59
2022/12/02 01:22:37;;;;;;;51.37;26.30;;;;;;;-142.25;100.00;58004.16;5017505;28;20056;-60
2022/12/02 01:25:04;;;;;;;57.73;28.13;;;;;;;-142.25;100.00;58004.16;5005974;28;20099;-60
2022/12/02 01:27:29;;;;;;;52.10;25.77;;;;;;;-142.25;100.00;58004.16;5012671;28;20099;-60
2022/12/02 01:29:55;;;;;;;51.87;27.70;;;;;;;-142.25;100.00;58004.16;5012915;28;20054;-60
2022/12/02 01:32:22;;;;;;;48.27;25.57;;;;;;;-142.25;100.00;58004.16;5012323;28;20048;-61
2022/12/02 01:34:48;;;;;;;45.63;23.83;;;;;;;-142.25;100.00;58004.16;5005462;28;20037;-61
2022/12/02 01:37:14;;;;;;;55.87;27.13;;;;;;;-142.25;100.00;58004.16;5011406;28;20072;-61
2022/12/02 01:39:39;;;;;;;51.10;26.53;;;;;;;-142.25;100.00;58004.16;5026587;28;20497;-61
2022/12/02 01:42:06;;;;;;;49.53;26.93;;;;;;;-142.25;100.00;58004.16;5011730;28;20041;-60
2022/12/02 01:44:32;;;;;;;53.03;26.80;;;;;;;-142.25;100.00;58004.16;5009975;28;20038;-60
2022/12/02 01:46:58;;;;;;;50.57;24.80;;;;;;;-142.25;100.00;58004.16;5003006;28;20044;-60
2022/12/02 01:49:25;;;;;;;52.43;28.63;;;;;;;-142.25;100.00;58004.16;5028470;28;20062;-60
2022/12/02 01:51:51;;;;;;;50.40;26.57;;;;;;;-142.25;100.00;58004.16;5012702;28;20064;-60
2022/12/02 01:54:16;;;;;;;49.90;25.27;;;;;;;-142.25;100.00;58004.16;5011672;28;20041;-60
2022/12/02 01:56:42;;;;;;;49.33;25.70;;;;;;;-142.25;100.00;58004.16;5012653;28;20076;-60
2022/12/02 01:59:14;;;;;;;51.73;26.70;;;;;;;-142.25;100.00;58004.16;5016071;28;20058;-61
2022/12/02 02:01:39;;;;;;;53.27;25.47;;;;;;;-142.25;100.00;58004.16;5014238;28;20033;-59
2022/12/02 02:04:06;;;;;;;49.93;27.20;;;;;;;-142.25;100.00;58004.16;5015323;28;20044;-62
2022/12/02 02:06:38;;;;;;;44.53;25.20;;;;;;;-142.25;100.00;58004.16;5010066;28;20579;-60
2022/12/02 02:09:03;;;;;;;49.70;24.93;;;;;;;-142.25;100.00;58004.16;5012001;28;20045;-60
2022/12/02 02:11:30;;;;;;;46.13;24.97;;;;;;;-142.25;100.00;58004.16;5012209;28;20056;-61
2022/12/02 02:13:59;;;;;;;46.10;22.23;;;;;;;-142.25;100.00;58004.16;5025480;28;20038;-61
2022/12/02 02:16:25;;;;;;;48.80;25.60;;;;;;;-142.25;100.00;58004.16;5011058;28;20045;-61
2022/12/02 02:18:50;;;;;;;45.63;24.17;;;;;;;-142.25;100.00;58004.16;5012414;28;20037;-65
2022/12/02 02:21:22;;;;;;;47.97;25.23;;;;;;;-142.25;100.00;58004.16;5009843;28;20519;-60
2022/12/02 02:23:47;;;;;;;52.60;24.77;;;;;;;-142.25;100.00;58004.16;5025730;28;20042;-60
2022/12/02 02:26:14;;;;;;;47.47;24.77;;;;;;;-142.25;100.00;58004.16;5012017;28;20099;-60
2022/12/02 02:28:40;;;;;;;46.47;24.90;;;;;;;-142.25;100.00;58004.16;5007073;28;20049;-60
2022/12/02 02:31:06;;;;;;;48.40;25.80;;;;;;;-142.25;100.00;58004.16;5010130;28;20045;-59
2022/12/02 02:33:37;;;;;;;48.53;25.63;;;;;;;-142.25;100.00;58004.16;5010023;28;20038;-60
2022/12/02 02:36:04;;;;;;;52.97;25.70;;;;;;;-142.25;100.00;58004.16;5010985;28;20112;-60
2022/12/02 02:38:31;;;;;;;48.27;24.50;;;;;;;-142.25;100.00;58004.16;5024386;28;20400;-60
2022/12/02 02:40:58;;;;;;;50.30;25.47;;;;;;;-142.25;100.00;58004.16;5004333;28;20045;-60
2022/12/02 02:43:27;;;;;;;47.53;24.60;;;;;;;-142.25;100.00;58004.16;5027128;28;20091;-59
2022/12/02 02:45:53;;;;;;;48.03;24.00;;;;;;;-142.25;100.00;58004.16;5011381;28;20489;-61
2022/12/02 02:48:22;;;;;;;48.07;25.07;;;;;;;-142.25;100.00;58004.16;5011159;28;20053;-60
2022/12/02 02:50:49;;;;;;;49.47;25.63;;;;;;;-142.25;100.00;58004.16;5020438;28;20457;-60
2022/12/02 02:53:19;;;;;;;51.73;26.40;;;;;;;-142.25;100.00;58004.16;5009891;28;20056;-60
2022/12/02 02:55:45;;;;;;;46.70;24.37;;;;;;;-142.25;100.00;58004.16;5011006;28;20048;-60
2022/12/02 02:58:14;;;;;;;47.57;24.77;;;;;;;-142.25;100.00;58004.16;5008814;28;20156;-61
2022/12/02 03:01:33;;;;;;;48.93;23.30;;;;;;;-142.25;100.00;58004.16;5026525;28;20408;-61
2022/12/02 03:04:03;;;;;;;50.10;25.10;;;;;;;-142.25;100.00;58004.16;4933969;29;20131;-61
2022/12/02 03:06:31;;;;;;;52.30;25.87;;;;;;;-142.25;100.00;58004.16;4916058;29;20621;-60
2022/12/02 03:08:58;;;;;;;58.57;27.80;;;;;;;-142.25;100.00;58004.16;4914844;29;20047;-60
2022/12/02 03:11:26;;;;;;;46.50;26.03;;;;;;;-142.25;100.00;58004.16;4934166;29;20063;-61
2022/12/02 03:13:53;;;;;;;51.90;26.53;;;;;;;-142.25;100.00;58004.16;4932751;29;20039;-61
2022/12/02 03:16:22;;;;;;;49.27;25.90;;;;;;;-142.25;100.00;58004.16;4934233;29;20624;-61
2022/12/02 03:18:50;;;;;;;55.97;27.93;;;;;;;-142.25;100.00;58004.16;4933099;29;20058;-61
2022/12/02 03:21:19;;;;;;;52.33;26.73;;;;;;;-142.25;100.00;58004.16;4934586;29;20050;-62
2022/12/02 03:23:46;;;;;;;52.67;26.93;;;;;;;-142.25;100.00;58004.16;4936086;29;20539;-61
2022/12/02 03:26:14;;;;;;;48.10;26.77;;;;;;;-142.25;100.00;58004.16;4936504;29;20054;-61
2022/12/02 03:28:40;;;;;;;48.37;26.07;;;;;;;-142.25;100.00;58004.16;4933254;29;20035;-62
2022/12/02 03:31:06;;;;;;;48.43;25.63;;;;;;;-142.25;100.00;58004.16;4931868;29;20074;-59
2022/12/02 03:33:33;;;;;;;51.77;27.97;;;;;;;-142.25;100.00;58004.16;4932226;29;20043;-60
2022/12/02 03:35:58;;;;;;;54.90;26.90;;;;;;;-142.25;100.00;58004.16;4916962;29;20442;-60
2022/12/02 03:38:25;;;;;;;49.93;26.40;;;;;;;-142.25;100.00;58004.16;4993007;28;20516;-60
2022/12/02 03:40:52;;;;;;;46.57;26.83;;;;;;;-142.25;100.00;58004.16;5010605;28;20049;-60
2022/12/02 03:43:18;;;;;;;52.20;26.67;;;;;;;-142.25;100.00;58004.16;5009938;28;20511;-62
2022/12/02 03:45:44;;;;;;;49.90;26.33;;;;;;;-142.25;100.00;58004.16;5010199;28;20144;-61
2022/12/02 03:48:11;;;;;;;56.83;26.37;;;;;;;-142.25;100.00;58004.16;5008169;28;20048;-59
2022/12/02 03:50:38;;;;;;;52.30;27.00;;;;;;;-142.25;100.00;58004.16;5010581;28;20050;-60
2022/12/02 03:53:04;;;;;;;49.67;25.50;;;;;;;-142.25;100.00;58004.16;5018836;28;20156;-63
2022/12/02 03:55:30;;;;;;;53.77;27.53;;;;;;;-142.25;100.00;58004.16;5005489;28;20049;-60
2022/12/02 03:58:06;;;;;;;57.67;26.47;;;;;;;-142.25;100.00;58004.16;5006744;28;20061;-62
2022/12/02 04:00:33;;;;;;;54.90;27.83;;;;;;;-142.25;100.00;58004.16;5011325;28;20560;-61
2022/12/02 04:02:59;;;;;;;54.30;26.47;;;;;;;-142.25;100.00;58004.16;5010009;28;20515;-58
2022/12/02 04:05:24;;;;;;;50.30;25.67;;;;;;;-142.25;100.00;58004.16;5009711;28;20033;-59
2022/12/02 04:07:50;;;;;;;52.80;25.33;;;;;;;-142.25;100.00;58004.16;5025883;28;20048;-59
2022/12/02 04:10:15;;;;;;;55.63;24.37;;;;;;;-142.25;100.00;58004.16;5008773;28;20060;-60
2022/12/02 04:12:41;;;;;;;54.30;27.47;;;;;;;-142.25;100.00;58004.16;5010804;28;20425;-59
2022/12/02 04:15:07;;;;;;;50.70;27.73;;;;;;;-142.25;100.00;58004.16;5005079;28;20137;-59
2022/12/02 04:17:33;;;;;;;50.63;25.83;;;;;;;-142.25;100.00;58004.16;5009967;28;20064;-60
2022/12/02 04:19:59;;;;;;;56.93;28.97;;;;;;;-142.25;100.00;58004.16;5008745;28;20124;-59
2022/12/02 04:22:25;;;;;;;48.77;24.67;;;;;;;-142.25;100.00;58004.16;5008895;28;20476;-61
2022/12/02 04:24:51;;;;;;;47.17;23.57;;;;;;;-142.25;100.00;58004.16;5010047;28;20045;-60
2022/12/02 04:27:16;;;;;;;46.27;24.63;;;;;;;-142.25;100.00;58004.16;5008333;28;20052;-60
2022/12/02 04:29:45;;;;;;;56.27;26.07;;;;;;;-142.25;100.00;58004.16;5005243;28;20393;-60
2022/12/02 04:32:11;;;;;;;51.77;25.77;;;;;;;-142.25;100.00;58004.16;5002906;28;20107;-60
2022/12/02 04:34:36;;;;;;;52.33;25.20;;;;;;;-142.25;100.00;58004.16;5002376;28;20611;-61
2022/12/02 04:37:02;;;;;;;48.53;24.47;;;;;;;-142.25;100.00;58004.16;5008101;28;20044;-61
2022/12/02 04:39:27;;;;;;;47.83;25.27;;;;;;;-142.25;100.00;58004.16;5009725;28;20588;-60
2022/12/02 04:41:53;;;;;;;51.73;25.50;;;;;;;-142.25;100.00;58004.16;5010104;28;20444;-61
2022/12/02 04:44:18;;;;;;;50.43;28.63;;;;;;;-142.25;100.00;58004.16;5004029;28;20053;-60
2022/12/02 04:46:44;;;;;;;45.07;26.33;;;;;;;-142.25;100.00;58004.16;5006809;28;20111;-60
2022/12/02 04:49:09;;;;;;;47.60;24.77;;;;;;;-142.25;100.00;58004.16;5010922;28;20063;-60
2022/12/02 04:51:35;;;;;;;50.53;25.73;;;;;;;-142.25;100.00;58004.16;5009777;28;20489;-60
2022/12/02 04:54:00;;;;;;;49.27;24.70;;;;;;;-142.25;100.00;58004.16;5023784;28;20464;-60
2022/12/02 04:56:26;;;;;;;50.40;24.93;;;;;;;-142.25;100.00;58004.16;5007962;28;20042;-60
2022/12/02 04:58:52;;;;;;;55.43;26.07;;;;;;;-142.25;100.00;58004.16;5011316;28;20510;-60
2022/12/02 05:01:18;;;;;;;48.60;25.30;;;;;;;-142.25;100.00;58004.16;5012773;28;20054;-61
2022/12/02 05:03:43;;;;;;;51.10;25.13;;;;;;;-142.25;100.00;58004.16;5014561;28;20486;-61
2022/12/02 05:06:09;;;;;;;50.43;25.93;;;;;;;-142.25;100.00;58004.16;5014306;28;20087;-59
2022/12/02 05:08:37;;;;;;;53.33;25.27;;;;;;;-142.25;100.00;58004.16;5014198;28;20067;-60
2022/12/02 05:11:03;;;;;;;54.10;25.97;;;;;;;-142.25;100.00;58004.16;4995753;28;20042;-59
2022/12/02 05:13:29;;;;;;;47.13;24.40;;;;;;;-142.25;100.00;58004.16;5013716;28;20042;-59
2022/12/02 05:15:54;;;;;;;46.87;24.73;;;;;;;-142.25;100.00;58004.16;5013378;28;20052;-60
2022/12/02 05:18:20;;;;;;;46.60;24.77;;;;;;;-142.25;100.00;58004.16;5013465;28;20152;-59
2022/12/02 05:20:46;;;;;;;52.07;25.00;;;;;;;-142.25;100.00;58004.16;5013560;28;20046;-60
2022/12/02 05:23:12;;;;;;;59.13;28.03;;;;;;;-142.25;100.00;58004.16;5014000;28;20044;-60
2022/12/02 05:25:38;;;;;;;48.87;25.40;;;;;;;-142.25;100.00;58004.16;4999269;28;20044;-60
2022/12/02 05:28:04;;;;;;;53.77;25.87;;;;;;;-142.25;100.00;58004.16;5028259;28;20049;-60
2022/12/02 05:30:30;;;;;;;51.73;24.20;;;;;;;-142.25;100.00;58004.16;5011045;28;20594;-60
2022/12/02 05:32:55;;;;;;;55.40;26.77;;;;;;;-142.25;100.00;58004.16;4993353;28;20168;-60
2022/12/02 05:35:21;;;;;;;48.93;25.10;;;;;;;-142.25;100.00;58004.16;5012227;28;20038;-61
2022/12/02 05:37:47;;;;;;;54.57;27.37;;;;;;;-142.25;100.00;58004.16;5012466;28;20038;-60
2022/12/02 05:40:12;;;;;;;50.03;24.17;;;;;;;-142.25;100.00;58004.16;5011705;28;20048;-59
2022/12/02 05:42:39;;;;;;;51.60;27.57;;;;;;;-142.25;100.00;58004.16;5013354;28;20115;-60
2022/12/02 05:45:18;;;;;;;52.23;28.93;;;;;;;-142.25;100.00;58004.16;5027952;28;20141;-59
2022/12/02 05:47:51;;;;;;;58.63;30.27;;;;;;;-142.25;100.00;58004.16;5014917;28;20470;-60
2022/12/02 05:50:17;;;;;;;59.77;28.40;;;;;;;-142.25;100.00;58004.16;5015098;28;20080;-61
2022/12/02 05:52:50;;;;;;;54.90;28.50;;;;;;;-142.25;100.00;58004.16;5014830;28;20038;-59
2022/12/02 05:55:19;;;;;;;51.53;27.17;;;;;;;-142.25;100.00;58004.16;5014359;28;20396;-60
2022/12/02 05:57:45;;;;;;;55.47;28.17;;;;;;;-142.25;100.00;58004.16;5023883;28;20617;-62
2022/12/02 06:00:13;;;;;;;53.17;26.03;;;;;;;-142.25;100.00;58004.16;5014421;28;20091;-59
2022/12/02 06:02:55;;;;;;;49.73;26.73;;;;;;;-142.25;100.00;58004.16;5007767;28;20598;-60
2022/12/02 06:05:23;;;;;;;53.03;26.57;;;;;;;-142.25;100.00;58004.16;5013192;28;20818;-59
2022/12/02 06:07:57;;;;;;;52.67;25.50;;;;;;;-142.25;100.00;58004.16;5014382;28;20042;-57
2022/12/02 06:10:28;;;;;;;51.70;26.63;;;;;;;-142.25;100.00;58004.16;5013055;28;20042;-58
2022/12/02 06:13:04;;;;;;;52.70;25.70;;;;;;;-142.25;100.00;58004.16;5011750;28;20037;-59
2022/12/02 06:15:33;;;;;;;;;;;;;;;-142.25;100.00;58004.16;5008376;28;20591;-58
2022/12/02 06:17:58;;;;;;;55.63;25.10;;;;;;;-142.25;100.00;58004.16;5008417;28;20356;-61
2022/12/02 06:20:29;;;;;;;52.80;27.30;;;;;;;-142.25;100.00;58004.16;5009792;28;20103;-58
2022/12/02 06:22:55;;;;;;;52.43;25.77;;;;;;;-142.25;100.00;58004.16;5009900;28;20124;-59
2022/12/02 06:25:25;;;;;;;50.87;26.20;;;;;;;-142.25;100.00;58004.16;5007619;28;20037;-59
2022/12/02 06:27:54;;;;;;;53.23;27.13;;;;;;;-142.25;100.00;58004.16;5011467;28;20932;-58
2022/12/02 06:30:19;;;;;;;57.57;27.87;;;;;;;-142.25;100.00;58004.16;5007398;28;20610;-58
2022/12/02 06:32:51;;;;;;;58.50;29.30;;;;;;;-142.25;100.00;58004.16;5004134;28;20045;-59
2022/12/02 06:35:31;;;;;;;54.97;27.80;;;;;;;-142.25;100.00;58004.16;5006578;28;20033;-58
2022/12/02 06:38:11;;;;;;;62.70;29.30;;;;;;;-142.25;100.00;58004.16;5019656;28;20050;-59
2022/12/02 06:40:38;;;;;;;58.77;29.30;;;;;;;-142.25;100.00;58004.16;5009949;28;20077;-59
2022/12/02 06:43:14;;;;;;;57.23;28.10;;;;;;;-142.25;100.00;58004.16;5011646;28;20053;-60
2022/12/02 06:45:39;;;;;;;54.50;26.93;;;;;;;-142.25;100.00;58004.16;5011316;28;20556;-59
2022/12/02 06:48:29;;;;;;;57.43;27.90;;;;;;;-142.25;100.00;58004.16;5007823;28;20033;-61
2022/12/02 06:51:18;;;;;;;50.93;27.53;;;;;;;-142.25;100.00;58004.16;5004959;28;20136;-58
2022/12/02 06:53:46;;;;;;;54.77;28.40;;;;;;;-142.25;100.00;58004.16;5009009;28;20053;-58
2022/12/02 06:56:26;;;;;;;54.63;27.37;;;;;;;-142.25;100.00;58004.16;5011395;28;20092;-59
2022/12/02 06:58:54;;;;;;;57.87;28.93;;;;;;;-142.25;100.00;58004.16;5012371;28;20065;-59
2022/12/02 07:01:22;;;;;;;51.10;25.87;;;;;;;-142.25;100.00;58004.16;5010883;28;20445;-59
2022/12/02 07:04:08;;;;;;;54.30;28.47;;;;;;;-142.25;100.00;58004.16;5009468;28;20037;-59
2022/12/02 07:06:39;;;;;;;54.33;26.73;;;;;;;-142.25;100.00;58004.16;4992668;28;20049;-60
2022/12/02 07:09:15;;;;;;;59.00;29.63;;;;;;;-142.25;100.00;58004.16;5004126;28;20068;-59
2022/12/02 07:11:49;;;;;;;53.40;26.90;;;;;;;-142.25;100.00;58004.16;5007579;28;20042;-57
2022/12/02 07:14:28;;;;;;;52.97;27.57;;;;;;;-142.25;100.00;58004.16;5007249;28;20702;-61
2022/12/02 07:16:59;;;;;;;63.47;32.10;;;;;;;-142.25;100.00;58004.16;5005804;28;20034;-59
2022/12/02 07:19:45;;;;;;;58.07;29.77;;;;;;;-142.25;100.00;58004.16;5008535;28;20152;-59
2022/12/02 07:22:20;;;;;;;57.30;29.03;;;;;;;-142.25;100.00;58004.16;5008992;28;20042;-61
2022/12/02 07:24:54;;;;;;;60.58;28.83;;;;;;;-142.25;100.00;58004.16;5010223;28;20037;-60
2022/12/02 07:27:24;;;;;;;60.03;29.07;;;;;;;-142.25;100.00;58004.16;5010709;28;20050;-60
2022/12/02 07:29:51;;;;;;;53.50;27.27;;;;;;;-142.25;100.00;58004.16;5008148;28;20061;-60
2022/12/02 07:32:16;;;;;;;56.00;27.63;;;;;;;-142.25;100.00;58004.16;5019493;28;20037;-60
2022/12/02 07:34:44;;;;;;;55.97;28.93;;;;;;;-142.25;100.00;58004.16;5024771;28;20405;-60
2022/12/02 07:37:10;;;;;;;58.90;27.73;;;;;;;-142.25;100.00;58004.16;5009159;28;20595;-60
2022/12/02 07:39:35;;;;;;;64.03;30.57;;;;;;;-142.25;100.00;58004.16;5006828;28;20045;-61
2022/12/02 07:42:01;;;;;;;55.97;28.37;;;;;;;-142.25;100.00;58004.16;5009887;28;20069;-60
2022/12/02 07:44:27;;;;;;;54.40;28.50;;;;;;;-142.25;100.00;58004.16;5009161;28;20508;-59
2022/12/02 07:46:52;;;;;;;51.47;27.00;;;;;;;-142.25;100.00;58004.16;5009769;28;20046;-58
2022/12/02 07:49:18;;;;;;;62.47;28.67;;;;;;;-142.25;100.00;58004.16;5007851;28;20037;-60
2022/12/02 07:51:43;;;;;;;53.80;27.10;;;;;;;-142.25;100.00;58004.16;5009744;28;21113;-59
2022/12/02 07:54:09;;;;;;;55.23;27.90;;;;;;;-142.25;100.00;58004.16;5009570;28;20131;-59
2022/12/02 07:56:35;;;;;;;58.13;29.50;;;;;;;-142.25;100.00;58004.16;5009877;28;20921;-59
2022/12/02 07:59:01;;;;;;;56.20;27.63;;;;;;;-142.25;100.00;58004.16;5025022;28;20046;-58
2022/12/02 08:01:27;;;;;;;55.37;28.23;;;;;;;-142.25;100.00;58004.16;5010436;28;20578;-66
2022/12/02 08:03:53;;;;;;;58.63;27.87;;;;;;;-142.25;100.00;58004.16;5005535;28;20050;-59
2022/12/02 08:06:19;;;;;;;57.93;27.40;;;;;;;-142.25;100.00;58004.16;5010156;28;20057;-59
2022/12/02 08:08:44;;;;;;;60.10;28.00;;;;;;;-142.25;100.00;58004.16;5024387;28;20041;-60
2022/12/02 08:11:10;;;;;;;57.77;27.07;;;;;;;-142.25;100.00;58004.16;5008728;28;20050;-59
2022/12/02 08:13:35;;;;;;;61.27;28.73;;;;;;;-142.25;100.00;58004.16;5008863;28;20484;-60
2022/12/02 08:16:02;;;;;;;59.13;27.37;;;;;;;-142.25;100.00;58004.16;5008973;28;20132;-60
2022/12/02 08:18:28;;;;;;;55.80;28.33;;;;;;;-142.25;100.00;58004.16;5009708;28;20064;-59
2022/12/02 08:20:53;;;;;;;56.70;30.33;;;;;;;-142.25;100.00;58004.16;5007815;28;20042;-59
2022/12/02 08:23:19;;;;;;;58.87;28.73;;;;;;;-142.25;100.00;58004.16;5010719;28;20777;-59
2022/12/02 08:25:44;;;;;;;57.27;31.03;;;;;;;-142.25;100.00;58004.16;5009485;28;20042;-60
2022/12/02 08:28:10;;;;;;;56.60;28.63;;;;;;;-142.25;100.00;58004.16;5008527;28;20046;-59
2022/12/02 08:30:35;;;;;;;61.57;29.03;;;;;;;-142.25;100.00;58004.16;5009446;28;20042;-59
2022/12/02 08:33:01;;;;;;;57.33;29.43;;;;;;;-142.25;100.00;58004.16;5010667;28;20482;-60
2022/12/02 08:35:27;;;;;;;58.73;30.00;;;;;;;-142.25;100.00;58004.16;5012548;28;20041;-58
2022/12/02 08:37:52;;;;;;;59.73;29.57;;;;;;;-142.25;100.00;58004.16;5014023;28;20053;-58
2022/12/02 08:40:18;;;;;;;59.20;29.80;;;;;;;-142.25;100.00;58004.16;5014817;28;20045;-58
2022/12/02 08:42:45;;;;;;;62.63;29.83;;;;;;;-142.25;100.00;58004.16;5009104;28;20180;-59
2022/12/02 08:45:11;;;;;;;58.40;30.60;;;;;;;-142.25;100.00;58004.16;5007481;28;20069;-58
2022/12/02 08:47:36;;;;;;;63.00;30.10;;;;;;;-142.25;100.00;58004.16;5012181;28;20037;-59
2022/12/02 08:50:03;;;;;;;56.00;27.67;;;;;;;-142.25;100.00;58004.16;5014548;28;20455;-60
2022/12/02 08:52:29;;;;;;;62.17;30.70;;;;;;;-142.25;100.00;58004.16;5010833;28;20484;-60
2022/12/02 08:54:57;;;;;;;61.20;29.93;;;;;;;-142.25;100.00;58004.16;5009690;28;20388;-61
2022/12/02 08:57:23;;;;;;;60.90;29.77;;;;;;;-142.25;100.00;58004.16;5013742;28;20054;-60
2022/12/02 08:59:49;;;;;;;58.03;29.53;;;;;;;-142.25;100.00;58004.16;5016063;28;20045;-59
2022/12/02 09:02:15;;;;;;;65.57;32.17;;;;;;;-142.25;100.00;58004.16;5006468;28;20147;-59
2022/12/02 09:04:40;;;;;;;60.90;30.30;;;;;;;-142.25;100.00;58004.16;5009935;28;20050;-60
2022/12/02 09:07:06;;;;;;;57.43;28.70;;;;;;;-142.25;100.00;58004.16;5007855;28;20049;-59
2022/12/02 09:09:32;;;;;;;60.57;30.00;;;;;;;-142.25;100.00;58004.16;5007066;28;20505;-59
2022/12/02 09:11:57;;;;;;;61.57;30.77;;;;;;;-142.25;100.00;58004.16;5007752;28;20057;-59
2022/12/02 09:14:23;;;;;;;57.70;30.17;;;;;;;-142.25;100.00;58004.16;5007232;28;20045;-60
2022/12/02 09:16:50;;;;;;;58.53;30.13;;;;;;;-142.25;100.00;58004.16;5009471;28;20711;-60
2022/12/02 09:19:16;;;;;;;55.30;27.43;;;;;;;-142.25;100.00;58004.16;5005096;28;20045;-60
2022/12/02 09:21:41;;;;;;;60.03;29.87;;;;;;;-142.25;100.00;58004.16;5009616;28;20054;-60
2022/12/02 09:24:07;;;;;;;54.97;28.47;;;;;;;-142.25;100.00;58004.16;5007718;28;20085;-60
2022/12/02 09:26:33;;;;;;;53.83;26.33;;;;;;;-142.25;100.00;58004.16;5008116;28;20632;-60
2022/12/02 09:28:59;;;;;;;56.73;29.57;;;;;;;-142.25;100.00;58004.16;5010224;28;20133;-60
2022/12/02 09:31:25;;;;;;;58.97;29.40;;;;;;;-142.25;100.00;58004.16;5014069;28;20064;-60
2022/12/02 09:33:50;;;;;;;57.03;29.37;;;;;;;-142.25;100.00;58004.16;5013722;28;20547;-60
2022/12/02 09:36:16;;;;;;;63.03;29.97;;;;;;;-142.25;100.00;58004.16;5012097;28;20497;-60
2022/12/02 09:38:42;;;;;;;65.60;29.43;;;;;;;-142.25;100.00;58004.16;5005755;28;20042;-59
2022/12/02 09:41:07;;;;;;;61.03;29.90;;;;;;;-142.25;100.00;58004.16;5025553;28;20865;-61
2022/12/02 09:43:33;;;;;;;57.90;28.83;;;;;;;-142.25;100.00;58004.16;5013349;28;20054;-59
2022/12/02 09:45:59;;;;;;;57.33;29.67;;;;;;;-142.25;100.00;58004.16;5007152;28;20132;-60
2022/12/02 09:48:27;;;;;;;57.50;29.20;;;;;;;-142.25;100.00;58004.16;5008465;28;20519;-63
2022/12/02 09:50:54;;;;;;;61.83;30.07;;;;;;;-142.25;100.00;58004.16;5022166;28;20044;-63
2022/12/02 09:53:20;;;;;;;61.67;30.53;;;;;;;-142.25;100.00;58004.16;5006835;28;20049;-59
2022/12/02 09:55:46;;;;;;;57.07;29.67;;;;;;;-142.25;100.00;58004.16;5007587;28;20042;-58
2022/12/02 09:58:18;;;;;;;56.83;29.90;;;;;;;-142.25;100.00;58004.16;5005842;28;20111;-59
2022/12/02 10:00:45;;;;;;;60.83;30.50;;;;;;;-142.25;100.00;58004.16;5007175;28;20289;-60
2022/12/02 10:03:14;;;;;;;59.50;32.13;;;;;;;-142.25;100.00;58004.16;5005514;28;20084;-58
2022/12/02 10:05:40;;;;;;;59.00;30.70;;;;;;;-142.25;100.00;58004.16;5009150;28;20128;-58
2022/12/02 10:08:24;;;;;;;60.07;30.10;;;;;;;-142.25;100.00;58004.16;5006672;28;20118;-58
2022/12/02 10:10:53;;;;;;;62.23;31.73;;;;;;;-142.25;100.00;58004.16;5008476;28;20041;-59
2022/12/02 10:13:20;;;;;;;60.43;30.63;;;;;;;-142.25;100.00;58004.16;5010523;28;20057;-58
2022/12/02 10:15:46;;;;;;;69.70;35.67;;;;;;;-142.25;100.00;58004.16;5005127;28;20137;-60
2022/12/02 10:18:18;;;;;;;64.50;33.57;;;;;;;-142.25;100.00;58004.16;5008922;28;20038;-60
2022/12/02 10:20:49;;;;;;;69.47;35.03;;;;;;;-142.25;100.00;58004.16;5013877;28;20049;-60
2022/12/02 10:23:23;;;;;;;65.50;32.67;;;;;;;-142.25;100.00;58004.16;5010378;28;20045;-61
2022/12/02 10:25:57;;;;;;;68.13;34.30;;;;;;;-142.25;100.00;58004.16;5002622;28;20098;-61
2022/12/02 10:28:31;;;;;;;67.60;32.83;;;;;;;-142.25;100.00;58004.16;5007481;28;20044;-60
2022/12/02 10:31:07;;;;;;;63.43;31.30;;;;;;;-142.25;100.00;58004.16;5010334;28;20073;-60
2022/12/02 10:33:38;;;;;;;63.57;31.50;;;;;;;-142.25;100.00;58004.16;5011953;28;20030;-58
2022/12/02 10:36:05;;;;;;;89.47;44.40;;;;;;;-142.25;100.00;58004.16;5005263;28;20047;-58
2022/12/02 10:38:38;;;;;;;87.33;44.87;;;;;;;-142.25;100.00;58004.16;5006664;28;20216;-59
2022/12/02 10:41:13;;;;;;;72.83;38.17;;;;;;;-142.25;100.00;58004.16;5012292;28;20176;-59
2022/12/02 10:43:43;;;;;;;71.87;37.07;;;;;;;-142.25;100.00;58004.16;5011150;28;20045;-59
2022/12/02 10:46:13;;;;;;;64.37;32.13;;;;;;;-142.25;100.00;58004.16;5010838;28;20280;-61
2022/12/02 10:48:40;;;;;;;62.77;31.37;;;;;;;-142.25;100.00;58004.16;5008982;28;20037;-60
2022/12/02 10:51:12;;;;;;;63.43;31.17;;;;;;;-142.25;100.00;58004.16;5012096;28;20540;-60
2022/12/02 10:53:38;;;;;;;62.53;31.03;;;;;;;-142.25;100.00;58004.16;5006376;28;20034;-60
2022/12/02 10:56:04;;;;;;;59.83;30.83;;;;;;;-142.25;100.00;58004.16;5008665;28;20049;-59
2022/12/02 10:58:30;;;;;;;61.97;32.30;;;;;;;-142.25;100.00;58004.16;5008285;28;20097;-61
2022/12/02 11:00:57;;;;;;;57.87;30.83;;;;;;;-142.25;100.00;58004.16;5009317;28;20081;-60
2022/12/02 11:03:22;;;;;;;69.77;32.07;;;;;;;-142.25;100.00;58004.16;5007874;28;20050;-59